Time;durP1;ratioP1;P1;durP2;ratioP2;P2;SDS_P1;SDS_P2;PMS_P1;PMS_P2;Temp;Humidity;BMP_temperature;BMP_pressure;BME280_temperature;BME280_humidity;BME280_pressure;Samples;Min_cycle;Max_cycle;Signal;HPM_P1;HPM_P2
2021/12/27 00:00:23;;;;;;;;;9.00;9.00;;;;;12.23;77.37;99673.75;4999263;28;45334;-68
2021/12/27 00:02:55;;;;;;;;;6.00;6.00;;;;;12.19;77.62;99675.91;4999223;28;45338;-68
2021/12/27 00:05:21;;;;;;;;;3.00;3.00;;;;;12.06;77.30;99651.75;4999744;28;45314;-68
2021/12/27 00:07:49;;;;;;;;;5.33;5.00;;;;;12.05;77.25;99634.13;4999241;28;46098;-67
2021/12/27 00:10:15;;;;;;;;;5.67;5.67;;;;;12.21;77.29;99660.56;4999419;28;45297;-67
2021/12/27 00:12:44;;;;;;;;;4.67;4.67;;;;;12.11;77.12;99639.53;4999269;28;45348;-68
2021/12/27 00:15:14;;;;;;;;;6.33;6.33;;;;;12.12;77.69;99641.19;4997633;28;45465;-67
2021/12/27 00:17:43;;;;;;;;;5.00;4.00;;;;;12.03;77.93;99620.16;4998263;28;48854;-67
2021/12/27 00:20:14;;;;;;;;;3.67;3.67;;;;;12.10;77.74;99623.72;4998992;28;45338;-68
2021/12/27 00:22:39;;;;;;;;;5.00;4.00;;;;;12.17;77.77;99653.97;4998465;28;45486;-68
2021/12/27 00:25:05;;;;;;;;;2.00;2.00;;;;;12.15;77.32;99645.31;4999033;28;45223;-68
2021/12/27 00:27:30;;;;;;;;;4.00;4.00;;;;;12.00;77.21;99609.81;4998885;28;45423;-68
2021/12/27 00:29:56;;;;;;;;;4.00;4.00;;;;;11.96;77.90;99609.38;4998986;28;45445;-69
2021/12/27 00:32:21;;;;;;;;;4.00;4.00;;;;;12.13;77.24;99631.34;4999223;28;45472;-67
2021/12/27 00:34:47;;;;;;;;;4.00;3.00;;;;;11.73;77.58;99555.28;4999176;28;45316;-67
2021/12/27 00:37:12;;;;;;;;;3.00;3.00;;;;;12.02;77.25;99602.50;4998584;28;45689;-68
2021/12/27 00:39:40;;;;;;;;;5.33;4.33;;;;;12.23;77.32;99626.63;5013999;28;45329;-68
2021/12/27 00:42:06;;;;;;;;;3.00;3.00;;;;;12.22;77.33;99624.13;5014090;28;45432;-67
2021/12/27 00:44:40;;;;;;;;;4.00;4.00;;;;;12.04;77.80;99592.50;4999044;28;45552;-67
2021/12/27 00:47:05;;;;;;;;;6.67;5.00;;;;;12.19;77.78;99623.47;4996924;28;47994;-68
2021/12/27 00:49:31;;;;;;;;;4.33;3.00;;;;;12.09;77.25;99611.41;4998705;28;45428;-66
2021/12/27 00:51:56;;;;;;;;;2.00;2.00;;;;;11.95;77.70;99589.06;4997720;28;45449;-68
2021/12/27 00:54:22;;;;;;;;;3.00;3.00;;;;;12.22;77.43;99630.28;4997753;28;45203;-67
2021/12/27 00:56:48;;;;;;;;;5.67;4.00;;;;;12.11;77.75;99617.41;4998730;28;45622;-69
2021/12/27 00:59:13;;;;;;;;;2.33;2.33;;;;;12.13;77.41;99621.53;4998645;28;45483;-68
2021/12/27 01:01:39;;;;;;;;;3.67;2.67;;;;;12.12;77.51;99624.38;4997380;28;45535;-68
2021/12/27 01:04:05;;;;;;;;;5.00;4.00;;;;;12.17;77.79;99624.66;4998750;28;45443;-68
2021/12/27 01:06:34;;;;;;;;;2.00;2.00;;;;;11.99;78.36;99597.50;4998460;28;45450;-69
2021/12/27 01:09:15;;;;;;;;;4.00;4.00;;;;;12.09;77.91;99627.41;4998104;28;45608;-68
2021/12/27 01:11:58;;;;;;;;;5.33;5.33;;;;;12.01;78.13;99601.66;4998468;28;45359;-68
2021/12/27 01:17:24;;;;;;;;;6.33;4.00;;;;;12.08;77.43;99615.94;4976309;28;46019;-68
2021/12/27 01:19:52;;;;;;;;;1.67;1.67;;;;;11.83;78.02;99578.03;4993503;28;45335;-68
2021/12/27 01:22:17;;;;;;;;;2.33;2.00;;;;;12.02;78.02;99597.19;4997272;28;45235;-67
2021/12/27 01:24:43;;;;;;;;;6.00;5.00;;;;;12.11;77.72;99609.41;4998584;28;45186;-69
2021/12/27 01:27:11;;;;;;;;;4.00;3.00;;;;;12.15;77.96;99608.03;4996767;28;47250;-68
2021/12/27 01:29:36;;;;;;;;;3.33;2.67;;;;;12.09;77.47;99584.78;4998279;28;45412;-69
2021/12/27 01:32:02;;;;;;;;;4.00;3.00;;;;;11.99;77.52;99585.03;4998531;28;45689;-68
2021/12/27 01:34:28;;;;;;;;;2.67;2.67;;;;;11.99;77.52;99571.72;4996827;28;45390;-68
2021/12/27 01:36:56;;;;;;;;;2.00;2.00;;;;;12.11;77.57;99590.75;4996611;28;46364;-69
2021/12/27 01:39:22;;;;;;;;;2.00;2.00;;;;;12.08;77.25;99564.47;4997889;28;45770;-68
2021/12/27 01:41:47;;;;;;;;;3.67;3.00;;;;;12.18;77.04;99581.00;4998129;28;45187;-68
2021/12/27 01:44:13;;;;;;;;;3.67;3.67;;;;;12.06;77.28;99556.66;4998310;28;45487;-68
2021/12/27 01:46:40;;;;;;;;;3.00;2.00;;;;;12.13;77.09;99562.91;4996963;28;46379;-68
2021/12/27 01:49:07;;;;;;;;;3.00;1.33;;;;;12.26;76.79;99583.59;4997939;28;45412;-68
2021/12/27 01:51:32;;;;;;;;;4.67;3.67;;;;;12.32;76.68;99577.53;4997974;28;45391;-68
2021/12/27 01:53:59;;;;;;;;;3.00;3.00;;;;;12.23;76.70;99556.50;4998126;28;45365;-67
2021/12/27 01:56:25;;;;;;;;;1.33;1.33;;;;;12.24;76.71;99558.16;4997828;28;45801;-68
2021/12/27 01:58:53;;;;;;;;;4.00;3.00;;;;;12.05;76.70;99528.38;4997560;28;45456;-68
2021/12/27 02:01:20;;;;;;;;;4.00;3.00;;;;;12.23;76.78;99570.66;5012960;28;45425;-68
2021/12/27 02:03:45;;;;;;;;;2.00;2.00;;;;;12.15;76.71;99558.22;4997978;28;45214;-68
2021/12/27 02:06:13;;;;;;;;;4.00;3.00;;;;;12.30;77.08;99594.72;4997560;28;45593;-69
2021/12/27 02:08:41;;;;;;;;;5.00;4.00;;;;;12.29;77.03;99585.06;4996243;28;45560;-68
2021/12/27 02:11:10;;;;;;;;;3.00;3.00;;;;;12.24;77.63;99579.47;4997709;28;45242;-69
2021/12/27 02:13:42;;;;;;;;;2.00;2.00;;;;;12.22;78.22;99577.00;4997918;28;45255;-68
2021/12/27 02:16:13;;;;;;;;;2.00;2.00;;;;;12.04;77.82;99544.56;4984345;28;46744;-68
2021/12/27 02:18:39;;;;;;;;;3.00;3.00;;;;;12.25;78.03;99576.63;4976575;28;45355;-68
2021/12/27 02:21:05;;;;;;;;;2.33;2.33;;;;;12.27;77.66;99568.44;4977794;28;45453;-68
2021/12/27 02:23:30;;;;;;;;;4.00;3.00;;;;;11.88;77.29;99511.75;4977921;28;45536;-68
2021/12/27 02:25:56;;;;;;;;;4.00;2.67;;;;;12.30;77.17;99571.56;4977651;28;46356;-68
2021/12/27 02:28:21;;;;;;;;;3.00;3.00;;;;;12.24;77.13;99552.81;4977586;28;45238;-68
2021/12/27 02:30:50;;;;;;;;;4.33;3.00;;;;;12.23;77.56;99546.66;4977723;28;45365;-68
2021/12/27 02:33:15;;;;;;;;;4.33;4.00;;;;;12.15;77.25;99534.25;4992994;28;45668;-68
2021/12/27 02:35:53;;;;;;;;;3.00;3.00;;;;;12.25;77.28;99549.16;4977672;28;45567;-68
2021/12/27 02:38:31;;;;;;;;;4.00;4.00;;;;;12.22;77.56;99550.34;4992581;28;45429;-68
2021/12/27 02:40:58;;;;;;;;;6.00;3.67;;;;;12.24;77.54;99543.00;4978468;28;45447;-67
2021/12/27 02:43:25;;;;;;;;;4.00;4.00;;;;;12.35;77.31;99558.50;5009187;28;45362;-68
2021/12/27 02:45:55;;;;;;;;;3.00;3.00;;;;;12.30;77.49;99558.25;4997771;28;46557;-68
2021/12/27 02:48:24;;;;;;;;;4.00;3.00;;;;;12.28;77.64;99557.59;5003419;28;45341;-68
2021/12/27 02:50:51;;;;;;;;;3.00;3.00;;;;;12.29;77.52;99559.25;5003938;28;45321;-67
2021/12/27 02:53:17;;;;;;;;;8.00;5.00;;;;;12.29;77.47;99551.25;5003889;28;45281;-68
2021/12/27 02:55:43;;;;;;;;;3.00;3.00;;;;;12.29;77.41;99537.09;5003399;28;45621;-68
2021/12/27 02:58:09;;;;;;;;;7.00;4.67;;;;;12.13;77.57;99519.47;5018587;28;45437;-67
2021/12/27 03:00:38;;;;;;;;;6.00;4.67;;;;;12.24;77.78;99527.00;5003397;28;45853;-68
2021/12/27 03:03:05;;;;;;;;;2.67;2.67;;;;;12.30;77.82;99536.09;5002488;28;45370;-68
2021/12/27 03:05:32;;;;;;;;;7.33;5.67;;;;;12.27;77.10;99525.81;5003365;28;46652;-67
2021/12/27 03:07:58;;;;;;;;;5.00;5.00;;;;;12.15;77.20;99502.28;5003300;28;45337;-68
2021/12/27 03:10:34;;;;;;;;;6.00;5.00;;;;;12.28;77.15;99532.78;5002817;28;45285;-69
2021/12/27 03:13:03;;;;;;;;;7.00;4.33;;;;;11.94;77.15;99472.88;5018901;28;45442;-67
2021/12/27 03:15:29;;;;;;;;;9.67;6.00;;;;;12.37;76.92;99531.66;5018243;28;48475;-68
2021/12/27 03:17:55;;;;;;;;;5.00;5.00;;;;;12.24;76.92;99500.34;5003224;28;45279;-68
2021/12/27 03:20:25;;;;;;;;;4.00;4.00;;;;;12.09;76.46;99475.56;5003543;28;45343;-68
2021/12/27 03:22:50;;;;;;;;;6.00;4.67;;;;;12.27;76.14;99509.81;5003553;28;45357;-68
2021/12/27 03:25:19;;;;;;;;;6.33;4.67;;;;;12.43;76.23;99528.28;5003327;28;45346;-66
2021/12/27 03:27:46;;;;;;;;;4.33;4.33;;;;;12.36;76.07;99514.84;5003140;28;45284;-67
2021/12/27 03:30:19;;;;;;;;;5.33;4.33;;;;;12.33;76.18;99512.56;5003363;28;45458;-70
2021/12/27 03:32:45;;;;;;;;;5.33;4.00;;;;;12.31;76.19;99517.25;5002332;28;45307;-68
2021/12/27 03:35:15;;;;;;;;;6.33;5.00;;;;;12.32;76.37;99520.75;5001703;28;45995;-69
2021/12/27 03:37:47;;;;;;;;;4.33;4.33;;;;;12.21;76.24;99494.53;5002965;28;45367;-68
2021/12/27 03:40:15;;;;;;;;;7.00;5.00;;;;;12.26;76.55;99505.50;5001191;28;45523;-69
2021/12/27 03:42:41;;;;;;;;;5.00;5.00;;;;;12.10;76.39;99474.53;4982593;28;45495;-67
2021/12/27 03:45:09;;;;;;;;;6.00;4.00;;;;;12.24;76.61;99495.03;4983041;28;45857;-68
2021/12/27 03:47:36;;;;;;;;;5.00;5.00;;;;;12.23;77.07;99493.38;4981910;28;45403;-67
2021/12/27 03:50:03;;;;;;;;;5.67;4.67;;;;;12.21;77.04;99490.03;4983225;28;45409;-69
2021/12/27 03:52:28;;;;;;;;;5.67;4.00;;;;;12.20;76.89;99491.06;4998528;28;45516;-68
2021/12/27 03:54:54;;;;;;;;;6.33;3.33;;;;;11.71;76.82;99398.38;4982967;28;45361;-68
2021/12/27 03:57:19;;;;;;;;;7.00;5.67;;;;;11.78;76.71;99415.31;4981237;28;45320;-68
2021/12/27 04:02:12;;;;;;;;;5.00;5.00;;;;;12.01;76.94;99456.97;4980406;28;45511;-71
2021/12/27 04:04:38;;;;;;;;;6.67;4.67;;;;;12.25;76.67;99480.69;4978692;28;46399;-68
2021/12/27 04:07:07;;;;;;;;;5.00;5.00;;;;;12.28;76.68;99480.31;4979906;28;45285;-67
2021/12/27 04:09:32;;;;;;;;;6.00;6.00;;;;;12.29;76.33;99471.31;4994869;28;45472;-68
2021/12/27 04:11:58;;;;;;;;;6.00;5.67;;;;;12.28;75.95;99472.31;4980168;28;45415;-67
2021/12/27 04:14:25;;;;;;;;;6.33;6.33;;;;;12.24;75.77;99462.22;4979876;28;45776;-69
2021/12/27 04:16:51;;;;;;;;;4.00;4.00;;;;;12.32;76.16;99465.59;4980457;28;45415;-68
2021/12/27 04:19:16;;;;;;;;;4.33;4.00;;;;;12.23;75.41;99450.75;4979864;28;45326;-67
2021/12/27 04:21:41;;;;;;;;;5.00;5.00;;;;;12.34;75.79;99462.75;4979988;28;45479;-68
2021/12/27 04:24:07;;;;;;;;;4.67;3.00;;;;;12.29;75.98;99457.97;4979384;28;46684;-68
2021/12/27 04:26:33;;;;;;;;;5.00;5.00;;;;;12.15;75.89;99432.19;4979586;28;45383;-67
2021/12/27 04:28:58;;;;;;;;;6.33;4.33;;;;;12.38;75.74;99470.19;4979714;28;45499;-69
2021/12/27 04:31:23;;;;;;;;;3.33;2.67;;;;;12.08;75.26;99425.94;4979749;28;45460;-68
2021/12/27 04:33:49;;;;;;;;;6.67;5.00;;;;;12.32;75.94;99470.94;4979282;28;46509;-68
2021/12/27 04:36:14;;;;;;;;;6.67;5.33;;;;;12.05;75.80;99439.66;4979378;28;45378;-69
2021/12/27 04:38:42;;;;;;;;;5.33;4.67;;;;;12.21;76.28;99470.56;4994368;28;45774;-69
2021/12/27 04:41:09;;;;;;;;;6.00;4.67;;;;;12.21;76.13;99468.72;4979591;28;45455;-68
2021/12/27 04:43:35;;;;;;;;;4.00;4.00;;;;;12.27;76.02;99460.00;4978962;28;46684;-68
2021/12/27 04:46:00;;;;;;;;;7.33;4.33;;;;;12.23;75.75;99465.91;4977767;28;46119;-67
2021/12/27 04:48:26;;;;;;;;;6.00;4.67;;;;;11.86;75.88;99409.06;4979048;28;45325;-69
2021/12/27 04:50:52;;;;;;;;;3.67;3.67;;;;;12.27;75.55;99477.84;4979350;28;45170;-68
2021/12/27 04:53:18;;;;;;;;;5.00;4.00;;;;;12.18;75.52;99471.75;4978902;28;46543;-68
2021/12/27 04:55:46;;;;;;;;;4.67;4.67;;;;;12.18;75.80;99485.91;4979155;28;45229;-67
2021/12/27 04:58:16;;;;;;;;;5.67;3.67;;;;;12.15;75.93;99480.13;4977823;28;45375;-68
2021/12/27 05:00:43;;;;;;;;;9.67;7.00;;;;;11.92;75.78;99452.78;4979188;28;45539;-67
2021/12/27 05:03:09;;;;;;;;;8.33;4.67;;;;;12.03;76.08;99481.63;4977487;28;46624;-68
2021/12/27 05:05:36;;;;;;;;;6.33;5.33;;;;;12.05;76.36;99495.59;4978961;28;45253;-67
2021/12/27 05:08:03;;;;;;;;;4.00;4.00;;;;;12.05;75.70;99490.25;4979208;28;45314;-67
2021/12/27 05:10:30;;;;;;;;;7.00;5.00;;;;;12.03;76.47;99497.59;4981491;28;45465;-67
2021/12/27 05:12:56;;;;;;;;;5.33;5.00;;;;;11.91;76.25;99480.41;4998452;28;45392;-69
2021/12/27 05:15:21;;;;;;;;;6.67;5.00;;;;;12.01;76.53;99495.09;4998200;28;45351;-67
2021/12/27 05:17:47;;;;;;;;;10.00;6.33;;;;;12.01;76.68;99500.44;4998385;28;45535;-67
2021/12/27 05:20:13;;;;;;;;;6.00;6.00;;;;;11.93;76.50;99489.06;4997375;28;45509;-68
2021/12/27 05:22:39;;;;;;;;;7.00;5.67;;;;;11.88;76.74;99474.44;5013526;28;46596;-66
2021/12/27 05:25:06;;;;;;;;;7.33;6.67;;;;;12.05;76.81;99491.09;4998292;28;45400;-67
2021/12/27 05:27:32;;;;;;;;;7.33;5.33;;;;;12.00;76.09;99476.63;4998134;28;45386;-66
2021/12/27 05:29:57;;;;;;;;;7.33;6.67;;;;;11.97;76.36;99469.03;4996620;28;45354;-66
2021/12/27 05:32:23;;;;;;;;;7.67;5.67;;;;;12.09;76.48;99486.22;4996834;28;47487;-66
2021/12/27 05:34:48;;;;;;;;;7.00;7.00;;;;;12.09;76.12;99491.53;4998203;28;45371;-67
2021/12/27 05:37:14;;;;;;;;;10.33;6.00;;;;;11.97;76.32;99463.69;4998116;28;45548;-67
2021/12/27 05:39:40;;;;;;;;;6.00;4.00;;;;;12.05;76.41;99476.94;4998260;28;45410;-67
2021/12/27 05:42:06;;;;;;;;;5.00;5.00;;;;;12.09;76.17;99470.22;4996377;28;46292;-67
2021/12/27 05:44:31;;;;;;;;;9.67;6.67;;;;;11.93;75.94;99443.78;4978171;28;45519;-67
2021/12/27 05:46:57;;;;;;;;;7.00;6.00;;;;;12.05;76.36;99447.63;4978293;28;45329;-67
2021/12/27 05:49:23;;;;;;;;;5.67;4.00;;;;;12.11;75.98;99462.88;4978777;28;45436;-66
2021/12/27 05:51:49;;;;;;;;;7.00;7.00;;;;;12.11;76.15;99444.22;4978234;28;46496;-67
2021/12/27 05:54:14;;;;;;;;;8.00;6.33;;;;;12.07;75.98;99434.97;5008894;28;45359;-67
2021/12/27 05:56:43;;;;;;;;;6.33;6.00;;;;;10.60;75.85;99199.75;4997577;28;45476;-67
2021/12/27 05:59:09;;;;;;;;;5.67;5.00;;;;;11.57;76.02;99348.63;4997944;28;45447;-67
2021/12/27 06:01:34;;;;;;;;;9.67;8.33;;;;;11.93;76.12;99406.50;4995948;28;45942;-67
2021/12/27 06:04:00;;;;;;;;;7.00;7.00;;;;;11.97;76.27;99402.44;4997606;28;45411;-68
2021/12/27 06:06:26;;;;;;;;;8.33;8.00;;;;;11.85;75.72;99359.50;4997813;28;45426;-67
2021/12/27 06:08:52;;;;;;;;;9.00;6.33;;;;;12.04;75.83;99387.38;4997857;28;45452;-67
2021/12/27 06:11:18;;;;;;;;;8.00;7.00;;;;;12.05;75.88;99381.03;4997243;28;46139;-67
2021/12/27 06:13:43;;;;;;;;;10.33;6.00;;;;;12.06;75.72;99374.69;4997572;28;45343;-67
2021/12/27 06:16:10;;;;;;;;;8.67;7.67;;;;;12.04;75.80;99361.56;4997789;28;45538;-67
2021/12/27 06:18:36;;;;;;;;;8.33;6.67;;;;;11.72;75.60;99304.19;4997728;28;45341;-67
2021/12/27 06:21:01;;;;;;;;;8.33;5.33;;;;;11.28;75.38;99227.91;4996088;28;47636;-66
2021/12/27 06:23:27;;;;;;;;;8.00;8.00;;;;;12.01;75.21;99339.78;4989983;28;45438;-66
2021/12/27 06:25:52;;;;;;;;;13.00;10.00;;;;;11.95;75.52;99329.88;4977785;28;45345;-67
2021/12/27 06:28:17;;;;;;;;;8.00;8.00;;;;;11.92;75.43;99325.75;4976652;28;45601;-67
2021/12/27 06:30:43;;;;;;;;;6.67;6.00;;;;;11.91;75.67;99318.78;4977383;28;46540;-68
2021/12/27 06:33:10;;;;;;;;;9.00;9.00;;;;;11.80;75.74;99295.28;4977196;28;45331;-69
2021/12/27 06:35:36;;;;;;;;;8.67;7.67;;;;;11.83;75.40;99306.41;4977687;28;45325;-67
2021/12/27 06:38:02;;;;;;;;;10.00;8.33;;;;;11.67;76.03;99258.69;4978015;28;45580;-67
2021/12/27 06:40:27;;;;;;;;;8.67;8.00;;;;;11.83;75.30;99279.78;4977302;28;47535;-67
2021/12/27 06:42:53;;;;;;;;;5.67;5.67;;;;;11.68;75.75;99270.97;4992244;28;45415;-67
2021/12/27 06:45:18;;;;;;;;;9.00;8.00;;;;;11.70;75.98;99276.94;4977427;28;45317;-66
2021/12/27 06:47:44;;;;;;;;;8.00;8.00;;;;;11.71;75.96;99275.91;4977443;28;45615;-65
2021/12/27 06:50:10;;;;;;;;;11.00;7.67;;;;;11.57;75.62;99258.13;4977455;28;46490;-67
2021/12/27 06:52:35;;;;;;;;;8.33;7.00;;;;;11.48;75.42;99264.59;4977558;28;45502;-67
2021/12/27 06:55:01;;;;;;;;;9.33;9.00;;;;;11.50;75.64;99265.22;4975881;28;45538;-69
2021/12/27 06:57:26;;;;;;;;;8.00;7.00;;;;;11.12;75.27;99206.81;4977538;28;45917;-67
2021/12/27 06:59:52;;;;;;;;;7.33;6.00;;;;;11.41;75.43;99261.00;4976883;28;46231;-66
2021/12/27 07:02:17;;;;;;;;;8.00;6.67;;;;;11.52;75.39;99273.84;4977072;28;45462;-67
2021/12/27 07:04:42;;;;;;;;;7.67;7.67;;;;;11.52;76.00;99287.97;4977363;28;45428;-67
2021/12/27 07:07:08;;;;;;;;;9.67;7.00;;;;;11.47;75.79;99274.41;4977503;28;45522;-67
2021/12/27 07:09:33;;;;;;;;;6.67;5.00;;;;;11.16;75.38;99217.91;4975706;28;48073;-66
2021/12/27 07:11:59;;;;;;;;;8.00;7.00;;;;;11.62;75.62;99293.03;4976767;28;45455;-67
2021/12/27 07:14:24;;;;;;;;;7.00;6.33;;;;;11.59;75.46;99280.06;4992310;28;45482;-67
2021/12/27 07:16:50;;;;;;;;;10.00;7.67;;;;;11.15;75.15;99203.78;4977490;28;45397;-67
2021/12/27 07:19:15;;;;;;;;;8.33;8.00;;;;;11.64;75.57;99283.00;4991892;28;45903;-68
2021/12/27 07:21:41;;;;;;;;;8.67;7.33;;;;;11.31;75.27;99236.53;4976997;28;45576;-67
2021/12/27 07:24:07;;;;;;;;;6.00;6.00;;;;;11.64;74.87;99283.00;4977301;28;45515;-68
2021/12/27 07:26:32;;;;;;;;;8.33;7.33;;;;;11.66;75.16;99278.31;4977203;28;45464;-67
2021/12/27 07:28:58;;;;;;;;;7.00;6.67;;;;;11.68;74.62;99275.47;4976574;28;46792;-67
2021/12/27 07:31:23;;;;;;;;;6.67;5.67;;;;;11.47;74.17;99246.97;4976617;28;45316;-66
2021/12/27 07:33:49;;;;;;;;;7.00;7.00;;;;;11.30;74.72;99230.38;4979813;28;45717;-68
2021/12/27 07:36:15;;;;;;;;;4.00;4.00;;;;;11.65;73.79;99287.31;4980332;28;45499;-66
2021/12/27 07:38:41;;;;;;;;;6.67;5.67;;;;;11.69;74.55;99296.59;4980085;28;45623;-67
2021/12/27 07:41:07;;;;;;;;;5.67;5.00;;;;;11.66;73.93;99275.66;4979940;28;45449;-67
2021/12/27 07:43:32;;;;;;;;;5.00;5.00;;;;;11.62;73.93;99277.06;4980245;28;45434;-66
2021/12/27 07:45:58;;;;;;;;;5.00;5.00;;;;;11.74;73.27;99290.69;4980188;28;45448;-67
2021/12/27 07:48:23;;;;;;;;;10.00;7.00;;;;;11.68;73.86;99276.31;4979789;28;46246;-67
2021/12/27 07:50:49;;;;;;;;;5.00;3.67;;;;;11.34;73.67;99209.53;4980119;28;45368;-68
2021/12/27 07:53:15;;;;;;;;;5.67;5.67;;;;;11.79;73.29;99275.00;4980264;28;45238;-66
2021/12/27 07:55:40;;;;;;;;;5.67;5.67;;;;;11.65;73.09;99255.38;4980331;28;45170;-67
2021/12/27 07:58:06;;;;;;;;;5.67;5.00;;;;;11.79;73.10;99283.00;4979960;28;45566;-67
2021/12/27 08:00:31;;;;;;;;;6.67;5.00;;;;;11.74;73.12;99264.88;4982094;28;45273;-67
2021/12/27 08:02:57;;;;;;;;;8.00;6.33;;;;;11.86;73.54;99273.25;4999496;28;45499;-68
2021/12/27 08:05:23;;;;;;;;;5.00;5.00;;;;;11.92;73.23;99272.50;5014779;28;45611;-67
2021/12/27 08:07:48;;;;;;;;;3.00;3.00;;;;;11.87;72.84;99256.28;4999035;28;45537;-68
2021/12/27 08:10:15;;;;;;;;;5.00;5.00;;;;;10.65;72.63;99059.19;4999081;28;45399;-67
2021/12/27 08:12:41;;;;;;;;;5.33;5.33;;;;;10.87;72.39;99080.50;4999531;28;45183;-67
2021/12/27 08:15:09;;;;;;;;;5.00;5.00;;;;;11.98;72.55;99262.91;4997992;28;45586;-67
2021/12/27 08:17:35;;;;;;;;;6.33;6.33;;;;;12.06;72.52;99268.97;4999004;28;45473;-67
2021/12/27 08:20:00;;;;;;;;;5.33;4.67;;;;;11.88;71.94;99229.44;4998968;28;45527;-67
2021/12/27 08:22:26;;;;;;;;;4.33;4.33;;;;;12.06;72.10;99262.81;4995671;28;45453;-67
2021/12/27 08:24:52;;;;;;;;;4.00;3.00;;;;;11.64;72.48;99187.19;4979711;28;46572;-67
2021/12/27 08:27:20;;;;;;;;;5.67;5.00;;;;;11.95;72.12;99231.34;4979227;28;45373;-67
2021/12/27 08:29:46;;;;;;;;;5.00;5.00;;;;;12.12;71.91;99259.38;4996923;28;45496;-67
2021/12/27 08:32:12;;;;;;;;;12.00;11.00;;;;;11.96;72.17;99227.66;4998560;28;45422;-67
2021/12/27 08:34:38;;;;;;;;;6.00;6.00;;;;;12.08;71.62;99247.47;4999019;28;45358;-68
2021/12/27 08:37:04;;;;;;;;;7.33;6.00;;;;;11.91;71.67;99227.41;4998790;28;46766;-67
2021/12/27 08:39:29;;;;;;;;;5.33;4.00;;;;;11.65;71.96;99186.16;4997751;28;45531;-69
2021/12/27 08:41:54;;;;;;;;;5.67;5.33;;;;;11.70;72.17;99199.72;4998827;28;45413;-67
2021/12/27 08:44:20;;;;;;;;;4.33;4.33;;;;;11.93;72.54;99241.38;4998276;28;45530;-68
2021/12/27 08:46:45;;;;;;;;;8.00;5.33;;;;;11.98;72.40;99245.09;4997131;28;45759;-68
2021/12/27 08:49:11;;;;;;;;;9.00;5.33;;;;;12.03;72.37;99252.53;4998626;28;45472;-69
2021/12/27 08:51:36;;;;;;;;;8.67;6.00;;;;;11.89;71.73;99227.59;4998591;28;45378;-68
2021/12/27 08:54:05;;;;;;;;;6.33;5.33;;;;;11.95;72.18;99234.00;4997991;28;45370;-67
2021/12/27 08:56:31;;;;;;;;;6.67;6.67;;;;;11.98;72.23;99230.97;4998626;28;45950;-67
2021/12/27 08:58:57;;;;;;;;;5.00;5.00;;;;;11.92;71.66;99218.41;4997184;28;45366;-68
2021/12/27 09:01:23;;;;;;;;;7.67;7.67;;;;;11.69;72.21;99157.31;4998828;28;45435;-68
2021/12/27 09:03:48;;;;;;;;;5.00;5.00;;;;;11.99;72.00;99224.63;4998387;28;45313;-68
2021/12/27 09:06:14;;;;;;;;;4.00;4.00;;;;;11.91;71.93;99222.09;4998447;28;45421;-66
2021/12/27 09:08:40;;;;;;;;;3.00;3.00;;;;;11.88;72.05;99208.16;4998212;28;45525;-67
2021/12/27 09:11:06;;;;;;;;;4.00;3.00;;;;;11.93;71.83;99220.88;4998162;28;45618;-68
2021/12/27 09:13:33;;;;;;;;;4.67;4.67;;;;;11.84;72.45;99225.53;4998773;28;45291;-67
2021/12/27 09:16:01;;;;;;;;;7.00;6.00;;;;;11.87;72.84;99230.47;4998022;28;46336;-67
2021/12/27 09:18:32;;;;;;;;;3.67;3.67;;;;;11.86;72.14;99231.47;4997001;28;45318;-67
2021/12/27 09:20:58;;;;;;;;;3.00;3.00;;;;;11.70;72.47;99205.06;4998366;28;45253;-68
2021/12/27 09:23:23;;;;;;;;;4.00;4.00;;;;;11.82;73.14;99224.06;4989603;28;45792;-66
2021/12/27 09:25:51;;;;;;;;;4.67;4.67;;;;;11.86;72.97;99220.00;4993310;28;47364;-67
2021/12/27 09:28:17;;;;;;;;;4.00;4.00;;;;;11.84;72.30;99212.22;4978362;28;45291;-67
2021/12/27 09:30:43;;;;;;;;;5.33;5.00;;;;;11.77;72.11;99200.63;4978245;28;45435;-67
2021/12/27 09:33:09;;;;;;;;;8.33;5.00;;;;;11.82;72.86;99214.25;4978117;28;45487;-67
2021/12/27 09:35:35;;;;;;;;;5.00;5.00;;;;;11.92;72.73;99207.75;4976763;28;47422;-67
2021/12/27 09:38:01;;;;;;;;;3.00;3.00;;;;;11.95;72.40;99202.03;4977894;28;45623;-66
2021/12/27 09:40:26;;;;;;;;;5.33;5.33;;;;;11.96;72.39;99207.19;4978038;28;45418;-68
2021/12/27 09:42:53;;;;;;;;;3.67;3.67;;;;;11.93;72.59;99209.41;4978351;28;45383;-65
2021/12/27 09:45:20;;;;;;;;;7.00;7.00;;;;;11.93;72.44;99188.94;4977816;28;45806;-68
2021/12/27 09:47:47;;;;;;;;;7.00;6.00;;;;;11.83;72.33;99173.28;4992587;28;45342;-67
2021/12/27 09:50:18;;;;;;;;;7.00;5.67;;;;;12.02;72.58;99205.63;4977675;28;45632;-68
2021/12/27 09:52:44;;;;;;;;;4.33;4.33;;;;;11.68;72.55;99137.88;4978417;28;45449;-67
2021/12/27 09:55:11;;;;;;;;;5.67;5.67;;;;;11.69;72.30;99144.84;4977518;28;45750;-67
2021/12/27 09:57:37;;;;;;;;;5.00;3.33;;;;;11.91;72.00;99179.47;4992643;28;45311;-65
2021/12/27 10:00:05;;;;;;;;;7.00;4.33;;;;;11.97;72.38;99195.50;4978037;28;45500;-70
2021/12/27 10:02:34;;;;;;;;;5.33;5.33;;;;;11.56;72.44;99128.72;4978000;28;45372;-67
2021/12/27 10:04:59;;;;;;;;;10.33;8.00;;;;;11.98;72.80;99207.81;4977633;28;46696;-67
2021/12/27 10:07:27;;;;;;;;;7.67;7.00;;;;;11.95;72.47;99215.38;4977637;28;45369;-66
2021/12/27 10:09:55;;;;;;;;;16.00;14.33;;;;;11.88;73.10;99202.00;4977894;28;45326;-68
2021/12/27 10:12:23;;;;;;;;;6.00;6.00;;;;;11.80;73.21;99200.25;4992934;28;45498;-65
2021/12/27 10:15:10;;;;;;;;;11.33;9.67;;;;;11.77;73.43;99195.28;4977284;28;46484;-69
2021/12/27 10:17:37;;;;;;;;;5.33;5.00;;;;;11.53;74.24;99179.69;4977230;28;45511;-66
2021/12/27 10:20:09;;;;;;;;;6.33;5.33;;;;;11.52;74.12;99180.69;4977408;28;46347;-67
2021/12/27 10:22:46;;;;;;;;;8.00;6.00;;;;;11.74;74.67;99200.16;4977185;28;45323;-66
2021/12/27 10:25:18;;;;;;;;;5.00;5.00;;;;;11.78;74.34;99198.78;4976989;28;46139;-66
2021/12/27 10:27:46;;;;;;;;;3.00;3.00;;;;;11.70;74.61;99199.72;4976407;28;45342;-67
2021/12/27 10:30:17;;;;;;;;;6.00;6.00;;;;;11.66;75.10;99181.66;4976924;28;45289;-67
2021/12/27 10:32:44;;;;;;;;;3.00;3.00;;;;;11.64;74.63;99200.50;4977399;28;45552;-66
2021/12/27 10:35:11;;;;;;;;;7.67;6.67;;;;;11.57;74.65;99210.22;4976600;28;46541;-67
2021/12/27 10:37:38;;;;;;;;;6.67;6.00;;;;;11.55;74.87;99206.94;4976868;28;45522;-67
2021/12/27 10:40:05;;;;;;;;;4.67;4.67;;;;;11.57;75.55;99205.72;4976797;28;45504;-67
2021/12/27 10:42:35;;;;;;;;;8.67;6.00;;;;;11.61;75.24;99182.22;4976873;28;45545;-67
2021/12/27 10:45:12;;;;;;;;;6.67;6.00;;;;;11.59;75.02;99186.91;4976612;28;46220;-66
2021/12/27 10:47:46;;;;;;;;;3.67;3.67;;;;;11.24;75.11;99130.03;4975194;28;45493;-67
2021/12/27 10:50:23;;;;;;;;;6.00;6.00;;;;;11.55;75.52;99188.28;4977131;28;45381;-68
2021/12/27 10:52:54;;;;;;;;;4.67;4.67;;;;;11.59;75.62;99197.53;4985335;28;45273;-69
2021/12/27 10:55:26;;;;;;;;;5.00;4.00;;;;;11.37;75.42;99161.28;4996488;28;47690;-68
2021/12/27 10:58:12;;;;;;;;;5.67;4.33;;;;;11.33;75.32;99144.03;4996638;28;45465;-67
2021/12/27 11:00:39;;;;;;;;;4.67;4.67;;;;;11.31;75.28;99156.72;4996713;28;45514;-68
2021/12/27 11:03:05;;;;;;;;;5.00;5.00;;;;;11.25;76.00;99156.47;4996508;28;45239;-68
2021/12/27 11:05:33;;;;;;;;;5.00;5.00;;;;;11.43;75.80;99192.47;4995046;28;46932;-67
2021/12/27 11:08:03;;;;;;;;;5.67;5.67;;;;;11.36;76.15;99196.88;5013126;28;46388;-66
2021/12/27 11:10:30;;;;;;;;;3.33;3.33;;;;;11.42;77.17;99214.78;4999701;28;45224;-67
2021/12/27 11:12:59;;;;;;;;;6.67;6.67;;;;;11.38;76.66;99189.53;4999825;28;45270;-67
2021/12/27 11:15:29;;;;;;;;;5.67;5.33;;;;;11.21;76.48;99171.16;4999606;28;46561;-67
2021/12/27 11:17:56;;;;;;;;;9.33;7.67;;;;;10.99;77.59;99121.53;4999444;28;45539;-65
2021/12/27 11:20:22;;;;;;;;;7.00;7.00;;;;;11.70;76.72;99205.06;4999943;28;45875;-66
2021/12/27 11:22:51;;;;;;;;;12.67;12.67;;;;;11.59;76.25;99181.56;4999737;28;45295;-68
2021/12/27 11:25:27;;;;;;;;;21.00;19.00;;;;;11.82;77.07;99208.91;4999469;28;45784;-66
2021/12/27 11:27:53;;;;;;;;;4.67;4.33;;;;;11.87;75.96;99206.50;4999673;28;45284;-67
2021/12/27 11:30:25;;;;;;;;;6.00;5.33;;;;;11.88;75.59;99200.16;5014483;28;45561;-67
2021/12/27 11:33:15;;;;;;;;;7.67;7.67;;;;;11.89;75.34;99182.34;4999869;28;45489;-67
2021/12/27 11:35:59;;;;;;;;;8.00;8.00;;;;;12.11;75.38;99199.97;4999169;28;46587;-67